Observations for ODIHAM RAF, United Kingdom (EGVO)

EGVO 180450Z 23007KT 9999 FEW010 BKN018 14/13 Q1017 WHT 
EGVO 180350Z 29009KT 9999 FEW008 BKN016 14/13 Q1017 WHT 
EGVO 180250Z 25010KT 9999 FEW007 BKN016 15/14 Q1017 WHT 
EGVO 180150Z 24009KT 7000 BR SCT005 BKN014 15/14 Q1017 YLO1 
EGVO 180050Z AUTO 24008KT 1900 BR OVC001/// 15/14 Q1017 
EGVO 172350Z AUTO 22008KT 6000 BR OVC002/// 15/15 Q1017 
EGVO 172250Z 20008KT 1500 -DZ OVC002 15/14 Q1017 AMB
EGVO 172150Z 20009KT 3000 -DZ OVC002 14/14 Q1017
EGVO 172050Z 20009KT 3000 -DZ OVC003 14/14 Q1017 YLO2   
EGVO 172020Z 20011KT 3000 -DZ OVC002 14/14 Q1016 AMB
EGVO 171950Z 20010KT 9999 5000SW BR OVC003 14/14 Q1016 YLO2 
EGVO 171850Z 22009KT 4000 -DZ OVC003 14/13 Q1017 YLO2   
EGVO 171819Z 22013KT 9999 5000SW -DZ OVC004 14/13 Q1017 YLO2
EGVO 171750Z 21014KT 9999 7000SW HZ OVC005 14/13 Q1016 YLO1 
EGVO 171650Z 21012KT 9999 OVC006 14/12 Q1016 YLO1   
EGVO 171550Z 23015KT 9999 OVC012 15/12 Q1017 GRN
EGVO 171450Z 22016KT 9999 OVC020 16/11 Q1016 WHT
EGVO 171350Z 22013KT 9999 BKN017 OVC026 15/12 Q1017 WHT 
EGVO 171250Z 21013KT 9999 BKN022 OVC050 16/11 Q1016 WHT 
EGVO 171150Z 23015KT 9999 BKN025 BKN070 16/09 Q1016 BLU 
EGVO 171050Z 24010KT 9999 SCT025 BKN070 16/09 Q1017 BLU 
EGVO 170950Z 25011KT 9999 SCT022 BKN035 15/09 Q1017 WHT 
EGVO 170850Z AUTO 25012KT 9999 SCT017/// BKN060/// 14/10 Q1017 RERA 
EGVO 170750Z 24013KT 9999 FEW012 SCT050 BKN150 14/10 Q1016 BLU  
EGVO 170650Z 23012KT 9999 -RA SCT050 BKN090 12/11 Q1016 BLU 
EGVO 170550Z 24010KT 8000 -RA FEW050 OVC070 12/10 Q1016 BLU 
EGVO 170450Z 24010KT 9999 FEW030 OVC080 13/09 Q1015 BLU